Airfield :
LOGIN :

Register | Disclaimer

   EN    FR    IT 

 










Legend :    VFR   Marginal VFR   IFR   Intensive IFR   Very Intensive IFR
Visi :
Ceiling :
>= 8 km
>= 3000ft
5 to 8 km
1000 to 3000 ft
1500m to 5 km
500 to 1000 ft
800 to 1500m
200 to 500 ft
< 800m
< 200 ft
Symbols :   Thunderstorms  Fog  Heavy snow  Heavy precipitations  Wind > 20 kt
SIGMETs :     Misc.  Thunderstorms  Icing  Turbulence  Mountain Waves  Volcanic Ashes






- Airport Elevation : 50 ft
- IATA code : KOI


EGPA - Kirkwall

CURRENT METAR :
  • 082020Z 30017KT 9999 -SHRA FEW009 BKN022 06/05 Q0970

EXPIRED METARs :
  • 081950Z 28013KT 9999 -SHRA FEW009 SCT022 05/04 Q0970
  • 081920Z 29010KT 9999 VCSH FEW009 SCT022 05/03 Q0970
  • 081850Z 28007KT 9999 VCSH FEW009 FEW016CB SCT022 05/04 Q0970
  • 081820Z 28006KT 9999 VCSH FEW009 FEW016CB SCT022 05/04 Q0970
  • 081750Z 31009KT 9999 -SHRA FEW009 FEW016CB SCT022 05/04 Q0970

TAF TAF EGPA
Valid from the 08 at 21:00 until the 09 at 06:00 UTC


081957Z 0821/0906 29015KT 9999 SCT018
BECMG 0821/0823 36028G40KT
TEMPO 0821/0903 6000 SHRA BKN012
PROB30
TEMPO 0821/0903 3000 +SHRA SHRAGS BKN009CB
PROB30
TEMPO 0903/0906 4000 SHRASN BKN010CB



MET'MAP, your aeronautical weather chart ! - Copyright ORBIFLY December 2007 - Disclaimer

ORBIFLY MET'MAP TEAM :

Programming & Development : Alexandra Zaïnal
Concept & original design : Baudouin d'Aumeries
Assistance for programming : Marc-Olivier Méhu
Technical & hardware support : Manuel Goepfert

Contact : metmap@orbifly.com




SOURCES & CREDITS :

   NOAA